Mehtap Bayraktar — TCPB — position and weather

sailwx.info

Track history (hours):
 
Tides and Currents Weather Stations Pressure Air Temp Water Temp Dewpoint Dewpoint Depression Visibility Wind Speed Wind Dir Waves Ship Positions

Mehtap Bayraktar

Last reported at 2016-May-24 07:25 UTC. Time now 2016-May-27 10:18 UTC.
Position N 38°05' E 024°11'.

Length 114 m; draft 6.1 m.

Type: Cargo ship. MMSI: 271000578.

Date/timePositionNaut miles runAvg speedWind from/ knotsBaromVisibWave heightAir tempDewpointWater temp
2016-May-24 07:25N 38°05' E 024°11'910.2
2016-May-24 06:33N 37°57' E 024°16'  
2016-May-19 15:25N 40°41' E 028°31'1011.8
2016-May-19 14:33N 40°48' E 028°41'1111.2
2016-May-19 13:34N 40°55' E 028°52'6 0.4
2016-May-18 21:31N 40°59' E 028°58'35410.9
2016-May-17 13:11N 43°55' E 035°54'710.9
2016-May-17 12:30N 43°59' E 036°03'1211.0
2016-May-17 11:24N 44°04' E 036°18'1011.3
2016-May-17 10:34N 44°08' E 036°30'3511.4
2016-May-17 07:29N 44°23' E 037°14'1011.2
2016-May-17 06:34N 44°28' E 037°27'1111.2
2016-May-17 05:34N 44°33' E 037°41'10 9.9
2016-May-17 04:34N 44°41' E 037°50'4 3.6
2016-May-17 03:32N 44°44' E 037°47'0 0.0
2016-May-17 02:29N 44°44' E 037°47'0 0.0
2016-May-17 01:32N 44°44' E 037°47'0 0.0
2016-May-17 00:32N 44°44' E 037°47'0 0.0
2016-May-16 23:32N 44°44' E 037°47'0 0.0
2016-May-16 22:32N 44°44' E 037°47'0 0.0
2016-May-16 21:32N 44°44' E 037°47'0 0.0
2016-May-16 20:32N 44°44' E 037°47'0 0.0
2016-May-16 19:31N 44°44' E 037°47'0 0.0
2016-May-16 18:30N 44°44' E 037°47'0 0.0
2016-May-16 17:33N 44°44' E 037°47'0 0.0
2016-May-16 16:33N 44°44' E 037°47'0 0.0
2016-May-16 15:33N 44°44' E 037°47'0 0.0
2016-May-16 14:33N 44°44' E 037°47'0 0.0
2016-May-16 13:33N 44°44' E 037°47'0 0.0
2016-May-16 12:33N 44°44' E 037°47'0 0.0
2016-May-16 11:33N 44°44' E 037°47'0 0.0
2016-May-16 10:33N 44°44' E 037°47'0 0.0
2016-May-16 09:33N 44°44' E 037°47'0 0.0
2016-May-16 08:33N 44°44' E 037°47'0 0.0
2016-May-16 07:33N 44°44' E 037°47'0 0.0
2016-May-16 06:33N 44°44' E 037°47'0 0.0
2016-May-16 05:33N 44°44' E 037°47'0 0.0
2016-May-16 04:33N 44°44' E 037°47'0 0.0
2016-May-16 03:33N 44°44' E 037°47'0 0.0
2016-May-16 02:33N 44°44' E 037°47'0 0.0
2016-May-16 01:33N 44°44' E 037°47'0 0.0
2016-May-16 00:33N 44°44' E 037°47'0 0.0
2016-May-15 23:33N 44°44' E 037°47'0 0.0
2016-May-15 22:33N 44°44' E 037°47'0 0.0
2016-May-15 21:33N 44°44' E 037°47'0 0.0
2016-May-15 20:09N 44°44' E 037°47'0 0.0
2016-May-15 19:33N 44°44' E 037°47'0 0.0
2016-May-15 18:31N 44°44' E 037°47'0 0.0
2016-May-15 17:31N 44°44' E 037°47'0 0.0
2016-May-15 16:31N 44°44' E 037°47'0 0.0
2016-May-15 15:31N 44°44' E 037°47'0 0.0
2016-May-15 14:31N 44°44' E 037°47'0 0.0
2016-May-15 13:31N 44°44' E 037°47'0 0.0
2016-May-15 12:31N 44°44' E 037°47'0 0.0
2016-May-15 11:31N 44°44' E 037°47'0 0.0
2016-May-15 10:25N 44°44' E 037°47'0 0.0
2016-May-15 09:31N 44°44' E 037°47'0 0.0
2016-May-15 08:31N 44°44' E 037°47'0 0.0
2016-May-15 07:31N 44°44' E 037°47'0 0.0
2016-May-15 06:31N 44°44' E 037°47'0 0.0
2016-May-15 05:31N 44°44' E 037°47'0 0.0
2016-May-15 04:31N 44°44' E 037°47'0 0.0
2016-May-15 03:31N 44°44' E 037°47'0 0.0
2016-May-15 02:31N 44°44' E 037°47'0 0.0
2016-May-15 01:31N 44°44' E 037°47'0 0.0
2016-May-15 00:31N 44°44' E 037°47'0 0.0
2016-May-14 23:31N 44°44' E 037°47'0 0.0
2016-May-14 22:31N 44°44' E 037°47'0 0.0
2016-May-14 21:31N 44°44' E 037°47'6 6.8
2016-May-14 20:33N 44°38' E 037°52'5 4.7
2016-May-14 19:32N 44°35' E 037°57'0 0.0
2016-May-14 18:32N 44°35' E 037°57'0 0.0
2016-May-14 17:32N 44°35' E 037°57'0 0.0
2016-May-14 16:32N 44°35' E 037°57'0 0.0
2016-May-14 15:32N 44°35' E 037°57'0 0.0
2016-May-14 14:32N 44°35' E 037°57'0 0.0
2016-May-14 13:32N 44°35' E 037°57'0 0.0
2016-May-14 12:32N 44°35' E 037°57'0 0.0
2016-May-14 11:32N 44°35' E 037°57'0 0.0
2016-May-14 10:32N 44°35' E 037°57'0 0.0
2016-May-14 09:32N 44°35' E 037°57'0 0.0
2016-May-14 08:32N 44°35' E 037°57'0 0.0
2016-May-14 07:32N 44°35' E 037°57'  
Track history (hours):
 
Tides and Currents Weather Stations Pressure Air Temp Water Temp Dewpoint Dewpoint Depression Visibility Wind Speed Wind Dir Waves Ship Positions

Mehtap Bayraktar

Last reported at 2016-May-24 07:25 UTC. Time now 2016-May-27 10:18 UTC.
Position N 38°05' E 024°11'.

Length 114 m; draft 6.1 m.

Type: Cargo ship. MMSI: 271000578.

Date/timePositionNaut miles runAvg speedWind from/ knotsBaromVisibWave heightAir tempDewpointWater temp
2016-May-24 07:25N 38°05' E 024°11'910.2
2016-May-24 06:33N 37°57' E 024°16'  
2016-May-19 15:25N 40°41' E 028°31'1011.8
2016-May-19 14:33N 40°48' E 028°41'1111.2
2016-May-19 13:34N 40°55' E 028°52'6 0.4
2016-May-18 21:31N 40°59' E 028°58'35410.9
2016-May-17 13:11N 43°55' E 035°54'710.9
2016-May-17 12:30N 43°59' E 036°03'1211.0
2016-May-17 11:24N 44°04' E 036°18'1011.3
2016-May-17 10:34N 44°08' E 036°30'3511.4
2016-May-17 07:29N 44°23' E 037°14'1011.2
2016-May-17 06:34N 44°28' E 037°27'1111.2
2016-May-17 05:34N 44°33' E 037°41'10 9.9
2016-May-17 04:34N 44°41' E 037°50'4 3.6
2016-May-17 03:32N 44°44' E 037°47'0 0.0
2016-May-17 02:29N 44°44' E 037°47'0 0.0
2016-May-17 01:32N 44°44' E 037°47'0 0.0
2016-May-17 00:32N 44°44' E 037°47'0 0.0
2016-May-16 23:32N 44°44' E 037°47'0 0.0
2016-May-16 22:32N 44°44' E 037°47'0 0.0
2016-May-16 21:32N 44°44' E 037°47'0 0.0
2016-May-16 20:32N 44°44' E 037°47'0 0.0
2016-May-16 19:31N 44°44' E 037°47'0 0.0
2016-May-16 18:30N 44°44' E 037°47'0 0.0
2016-May-16 17:33N 44°44' E 037°47'0 0.0
2016-May-16 16:33N 44°44' E 037°47'0 0.0
2016-May-16 15:33N 44°44' E 037°47'0 0.0
2016-May-16 14:33N 44°44' E 037°47'0 0.0
2016-May-16 13:33N 44°44' E 037°47'0 0.0
2016-May-16 12:33N 44°44' E 037°47'0 0.0
2016-May-16 11:33N 44°44' E 037°47'0 0.0
2016-May-16 10:33N 44°44' E 037°47'0 0.0
2016-May-16 09:33N 44°44' E 037°47'0 0.0
2016-May-16 08:33N 44°44' E 037°47'0 0.0
2016-May-16 07:33N 44°44' E 037°47'0 0.0
2016-May-16 06:33N 44°44' E 037°47'0 0.0
2016-May-16 05:33N 44°44' E 037°47'0 0.0
2016-May-16 04:33N 44°44' E 037°47'0 0.0
2016-May-16 03:33N 44°44' E 037°47'0 0.0
2016-May-16 02:33N 44°44' E 037°47'0 0.0
2016-May-16 01:33N 44°44' E 037°47'0 0.0
2016-May-16 00:33N 44°44' E 037°47'0 0.0
2016-May-15 23:33N 44°44' E 037°47'0 0.0
2016-May-15 22:33N 44°44' E 037°47'0 0.0
2016-May-15 21:33N 44°44' E 037°47'0 0.0
2016-May-15 20:09N 44°44' E 037°47'0 0.0
2016-May-15 19:33N 44°44' E 037°47'0 0.0
2016-May-15 18:31N 44°44' E 037°47'0 0.0
2016-May-15 17:31N 44°44' E 037°47'0 0.0
2016-May-15 16:31N 44°44' E 037°47'0 0.0
2016-May-15 15:31N 44°44' E 037°47'0 0.0
2016-May-15 14:31N 44°44' E 037°47'0 0.0
2016-May-15 13:31N 44°44' E 037°47'0 0.0
2016-May-15 12:31N 44°44' E 037°47'0 0.0
2016-May-15 11:31N 44°44' E 037°47'0 0.0
2016-May-15 10:25N 44°44' E 037°47'0 0.0
2016-May-15 09:31N 44°44' E 037°47'0 0.0
2016-May-15 08:31N 44°44' E 037°47'0 0.0
2016-May-15 07:31N 44°44' E 037°47'0 0.0
2016-May-15 06:31N 44°44' E 037°47'0 0.0
2016-May-15 05:31N 44°44' E 037°47'0 0.0
2016-May-15 04:31N 44°44' E 037°47'0 0.0
2016-May-15 03:31N 44°44' E 037°47'0 0.0
2016-May-15 02:31N 44°44' E 037°47'0 0.0
2016-May-15 01:31N 44°44' E 037°47'0 0.0
2016-May-15 00:31N 44°44' E 037°47'0 0.0
2016-May-14 23:31N 44°44' E 037°47'0 0.0
2016-May-14 22:31N 44°44' E 037°47'0 0.0
2016-May-14 21:31N 44°44' E 037°47'6 6.8
2016-May-14 20:33N 44°38' E 037°52'5 4.7
2016-May-14 19:32N 44°35' E 037°57'0 0.0
2016-May-14 18:32N 44°35' E 037°57'0 0.0
2016-May-14 17:32N 44°35' E 037°57'0 0.0
2016-May-14 16:32N 44°35' E 037°57'0 0.0
2016-May-14 15:32N 44°35' E 037°57'0 0.0
2016-May-14 14:32N 44°35' E 037°57'0 0.0
2016-May-14 13:32N 44°35' E 037°57'0 0.0
2016-May-14 12:32N 44°35' E 037°57'0 0.0
2016-May-14 11:32N 44°35' E 037°57'0 0.0
2016-May-14 10:32N 44°35' E 037°57'0 0.0
2016-May-14 09:32N 44°35' E 037°57'0 0.0
2016-May-14 08:32N 44°35' E 037°57'0 0.0
2016-May-14 07:32N 44°35' E 037°57'  

Dump ship's entire track history